Time;durP1;ratioP1;P1;durP2;ratioP2;P2;SDS_P1;SDS_P2;PMS_P1;PMS_P2;Temp;Humidity;BMP_temperature;BMP_pressure;BME280_temperature;BME280_humidity;BME280_pressure;Samples;Min_cycle;Max_cycle;Signal;HPM_P1;HPM_P2
2022/08/29 00:01:41;;;;;;;6.13;2.30;;;;;;;;;;5014023;28;20890;-90
2022/08/29 00:04:06;;;;;;;11.35;2.97;;;;;;;;;;5018567;28;20041;-89
2022/08/29 00:06:32;;;;;;;7.45;2.90;;;;;;;;;;5017141;28;20025;-89
2022/08/29 00:08:57;;;;;;;8.43;2.30;;;;;;;;;;5012357;28;20044;-89
2022/08/29 00:11:22;;;;;;;6.78;2.58;;;;;;;;;;5013479;28;20061;-89
2022/08/29 00:13:48;;;;;;;10.02;2.92;;;;;;;;;;5014005;28;20040;-89
2022/08/29 00:16:13;;;;;;;10.23;3.65;;;;;;;;;;5013648;28;20044;-89
2022/08/29 00:18:39;;;;;;;8.80;2.60;;;;;;;;;;5014895;28;20064;-89
2022/08/29 00:21:04;;;;;;;5.90;2.50;;;;;;;;;;5028780;28;20041;-87
2022/08/29 00:23:30;;;;;;;8.43;2.60;;;;;;;;;;5046911;28;20072;-88
2022/08/29 00:25:56;;;;;;;6.57;2.45;;;;;;;;;;5021164;28;20075;-88
2022/08/29 00:28:21;;;;;;;7.15;2.53;;;;;;;;;;5022228;28;20136;-87
2022/08/29 00:30:47;;;;;;;8.50;2.88;;;;;;;;;;5015303;28;20049;-87
2022/08/29 00:33:13;;;;;;;6.90;2.50;;;;;;;;;;5021184;28;20064;-88
2022/08/29 00:35:43;;;;;;;7.75;2.63;;;;;;;;;;5030174;28;20128;-88
2022/08/29 00:38:13;;;;;;;10.02;2.60;;;;;;;;;;5005594;28;20026;-87
2022/08/29 00:40:48;;;;;;;9.60;2.80;;;;;;;;;;5019648;28;20424;-87
2022/08/29 00:43:13;;;;;;;8.20;2.50;;;;;;;;;;5018118;28;20385;-88
2022/08/29 00:45:47;;;;;;;7.10;2.50;;;;;;;;;;5018096;28;20047;-88
2022/08/29 00:48:14;;;;;;;7.40;2.83;;;;;;;;;;5015565;28;20492;-88
2022/08/29 00:50:40;;;;;;;6.53;2.67;;;;;;;;;;5011808;28;20400;-87
2022/08/29 00:53:10;;;;;;;8.98;2.60;;;;;;;;;;5000155;28;20137;-87
2022/08/29 00:55:36;;;;;;;7.28;2.67;;;;;;;;;;5007600;28;20037;-87
2022/08/29 00:58:07;;;;;;;7.53;3.03;;;;;;;;;;5013619;28;20045;-88
2022/08/29 01:00:33;;;;;;;9.23;3.08;;;;;;;;;;5029154;28;20450;-88
2022/08/29 01:02:58;;;;;;;7.20;2.60;;;;;;;;;;5012694;28;20036;-87
2022/08/29 01:05:25;;;;;;;8.88;3.25;;;;;;;;;;5013802;28;20524;-87
2022/08/29 01:07:51;;;;;;;6.55;2.60;;;;;;;;;;5029419;28;20045;-87
2022/08/29 01:13:06;;;;;;;8.65;3.20;;;;;;;;;;5023757;28;20044;-87
2022/08/29 01:15:32;;;;;;;8.65;3.38;;;;;;;;;;5030180;28;20140;-87
2022/08/29 01:17:58;;;;;;;6.30;2.60;;;;;;;;;;5031255;28;20047;-87
2022/08/29 01:20:30;;;;;;;7.38;2.67;;;;;;;;;;5013293;28;20448;-87
2022/08/29 01:23:06;;;;;;;8.00;2.88;;;;;;;;;;5029155;28;20484;-88
2022/08/29 01:25:36;;;;;;;7.55;2.65;;;;;;;;;;5007113;28;20039;-88
2022/08/29 01:28:09;;;;;;;9.00;3.22;;;;;;;;;;5031367;28;20061;-87
2022/08/29 01:30:34;;;;;;;10.95;3.38;;;;;;;;;;5029059;28;20056;-88
2022/08/29 01:33:00;;;;;;;7.05;2.47;;;;;;;;;;5017602;28;20072;-87
2022/08/29 01:35:26;;;;;;;7.50;3.20;;;;;;;;;;5031300;28;20447;-88
2022/08/29 01:37:51;;;;;;;9.52;3.17;;;;;;;;;;5024053;28;20071;-87
2022/08/29 01:40:17;;;;;;;10.95;2.90;;;;;;;;;;5014387;28;20033;-87
2022/08/29 01:42:43;;;;;;;7.90;2.40;;;;;;;;;;5040108;28;20069;-86
2022/08/29 01:45:09;;;;;;;8.25;3.00;;;;;;;;;;5012508;28;20045;-86
2022/08/29 01:47:35;;;;;;;6.55;2.95;;;;;;;;;;5018135;28;20034;-88
2022/08/29 01:50:03;;;;;;;8.80;3.00;;;;;;;;;;5029018;28;20496;-87
2022/08/29 01:52:30;;;;;;;7.82;3.20;;;;;;;;;;5024078;28;20121;-86
2022/08/29 01:54:59;;;;;;;7.57;3.00;;;;;;;;;;5012081;28;20148;-88
2022/08/29 01:57:24;;;;;;;7.43;2.80;;;;;;;;;;5028436;28;20038;-87
2022/08/29 01:59:50;;;;;;;7.30;2.92;;;;;;;;;;5016104;28;20048;-88
2022/08/29 02:02:25;;;;;;;7.22;3.10;;;;;;;;;;5016828;28;20034;-87
2022/08/29 02:04:51;;;;;;;6.60;2.75;;;;;;;;;;5018623;28;20503;-87
2022/08/29 02:07:18;;;;;;;7.50;2.70;;;;;;;;;;5012328;28;20036;-87
2022/08/29 02:09:47;;;;;;;8.25;2.80;;;;;;;;;;5027579;28;20067;-86
2022/08/29 02:12:13;;;;;;;13.25;3.40;;;;;;;;;;5014363;28;20037;-87
2022/08/29 02:14:39;;;;;;;6.72;2.90;;;;;;;;;;5014752;28;20045;-87
2022/08/29 02:17:06;;;;;;;8.85;3.22;;;;;;;;;;5026011;28;20460;-88
2022/08/29 02:19:32;;;;;;;10.00;3.35;;;;;;;;;;5027021;28;20038;-88
2022/08/29 02:21:58;;;;;;;7.65;3.47;;;;;;;;;;5015146;28;20400;-88
2022/08/29 02:24:23;;;;;;;9.35;3.50;;;;;;;;;;5021670;28;20032;-87
2022/08/29 02:26:49;;;;;;;7.05;3.08;;;;;;;;;;5011128;28;20381;-88
2022/08/29 02:29:15;;;;;;;8.48;3.30;;;;;;;;;;5031539;28;20045;-86
2022/08/29 02:31:43;;;;;;;9.13;3.05;;;;;;;;;;5017416;28;20825;-87
2022/08/29 02:34:09;;;;;;;7.55;3.30;;;;;;;;;;5036049;28;20046;-87
2022/08/29 02:36:36;;;;;;;6.72;2.85;;;;;;;;;;5012017;28;20112;-89
2022/08/29 02:39:05;;;;;;;6.70;3.00;;;;;;;;;;5030960;28;20120;-88
2022/08/29 02:41:30;;;;;;;12.02;3.47;;;;;;;;;;5013852;28;20284;-88
2022/08/29 02:43:57;;;;;;;7.32;3.20;;;;;;;;;;5010504;28;20049;-89
2022/08/29 02:46:22;;;;;;;8.45;3.17;;;;;;;;;;5034022;28;20037;-88
2022/08/29 02:48:48;;;;;;;8.23;3.05;;;;;;;;;;5014960;28;20103;-87
2022/08/29 02:51:28;;;;;;;8.00;2.88;;;;;;;;;;5029206;28;20040;-86
2022/08/29 02:53:54;;;;;;;9.15;3.10;;;;;;;;;;5014807;28;20236;-86
2022/08/29 02:56:20;;;;;;;8.05;3.10;;;;;;;;;;5007308;28;20068;-85
2022/08/29 02:58:46;;;;;;;8.98;3.42;;;;;;;;;;5025014;28;20071;-86
2022/08/29 03:01:12;;;;;;;7.40;3.08;;;;;;;;;;5019079;28;20416;-85
2022/08/29 03:03:38;;;;;;;8.52;3.08;;;;;;;;;;5018046;28;20033;-84
2022/08/29 03:06:04;;;;;;;6.95;3.08;;;;;;;;;;5035151;28;20040;-86
2022/08/29 03:08:30;;;;;;;7.07;2.60;;;;;;;;;;5019140;28;20034;-85
2022/08/29 03:11:01;;;;;;;8.10;2.80;;;;;;;;;;5016682;28;20378;-85
2022/08/29 03:13:26;;;;;;;7.78;2.72;;;;;;;;;;5038944;28;20658;-85
2022/08/29 03:15:52;;;;;;;9.07;3.20;;;;;;;;;;5017042;28;20067;-87
2022/08/29 03:18:17;;;;;;;9.77;3.42;;;;;;;;;;5014754;28;20056;-87
2022/08/29 03:20:44;;;;;;;9.88;3.22;;;;;;;;;;5021128;28;20171;-87
2022/08/29 03:23:10;;;;;;;7.22;2.90;;;;;;;;;;5014616;28;20472;-86
2022/08/29 03:25:36;;;;;;;8.07;3.03;;;;;;;;;;5013756;28;20518;-87
2022/08/29 03:28:02;;;;;;;8.30;2.95;;;;;;;;;;5020968;28;20025;-87
2022/08/29 03:30:28;;;;;;;7.88;3.05;;;;;;;;;;5017752;28;20052;-87
2022/08/29 03:32:53;;;;;;;9.10;3.30;;;;;;;;;;5020859;28;20042;-87
2022/08/29 03:35:19;;;;;;;7.57;3.00;;;;;;;;;;5018448;28;20519;-87
2022/08/29 03:37:45;;;;;;;7.00;3.25;;;;;;;;;;5018218;28;20040;-87
2022/08/29 03:40:12;;;;;;;6.43;2.80;;;;;;;;;;5018800;28;20444;-87
2022/08/29 03:42:38;;;;;;;7.75;2.97;;;;;;;;;;5027394;28;20644;-87
2022/08/29 03:45:06;;;;;;;10.13;3.53;;;;;;;;;;5019303;28;20061;-88
2022/08/29 03:47:31;;;;;;;8.48;2.83;;;;;;;;;;5029754;28;20036;-88
2022/08/29 03:49:57;;;;;;;9.50;3.35;;;;;;;;;;5030836;28;20431;-87
2022/08/29 03:52:22;;;;;;;9.90;3.33;;;;;;;;;;5014062;28;20042;-88
2022/08/29 03:54:48;;;;;;;9.00;3.65;;;;;;;;;;5011208;28;20042;-87
2022/08/29 03:57:13;;;;;;;11.63;3.70;;;;;;;;;;5017351;28;20083;-87
2022/08/29 03:59:38;;;;;;;9.82;3.30;;;;;;;;;;5024873;28;20049;-87
2022/08/29 04:02:04;;;;;;;10.63;3.55;;;;;;;;;;5022188;28;20064;-88
2022/08/29 04:07:13;;;;;;;8.13;3.35;;;;;;;;;;5030674;28;20052;-88
2022/08/29 04:09:42;;;;;;;8.13;3.42;;;;;;;;;;5051114;28;20045;-87
2022/08/29 04:12:10;;;;;;;8.40;3.65;;;;;;;;;;5021470;28;20103;-88
2022/08/29 04:14:36;;;;;;;11.68;3.75;;;;;;;;;;5032200;28;20038;-88
2022/08/29 04:17:03;;;;;;;11.27;3.60;;;;;;;;;;5012667;28;20545;-87
2022/08/29 04:19:31;;;;;;;8.57;3.60;;;;;;;;;;5022060;28;20030;-88
2022/08/29 04:21:56;;;;;;;7.65;3.05;;;;;;;;;;5017014;28;20045;-88
2022/08/29 04:24:22;;;;;;;9.23;3.45;;;;;;;;;;5027221;28;20029;-88
2022/08/29 04:26:48;;;;;;;10.02;3.67;;;;;;;;;;5032377;28;20026;-87
2022/08/29 04:29:13;;;;;;;10.48;3.63;;;;;;;;;;5018093;28;20044;-87
2022/08/29 04:31:41;;;;;;;12.65;4.13;;;;;;;;;;5015498;28;20048;-86
2022/08/29 04:34:07;;;;;;;6.85;3.13;;;;;;;;;;5016126;28;20441;-87
2022/08/29 04:36:34;;;;;;;9.98;3.53;;;;;;;;;;5022673;28;20036;-88
2022/08/29 04:39:03;;;;;;;8.53;3.67;;;;;;;;;;5005142;28;20382;-86
2022/08/29 04:41:29;;;;;;;10.40;3.22;;;;;;;;;;5029332;28;20033;-88
2022/08/29 04:43:54;;;;;;;11.02;3.85;;;;;;;;;;5016069;28;20041;-87
2022/08/29 04:46:20;;;;;;;10.13;3.92;;;;;;;;;;5020942;28;20041;-87
2022/08/29 04:48:46;;;;;;;9.77;3.67;;;;;;;;;;5009327;28;20032;-85
2022/08/29 04:51:11;;;;;;;11.05;4.20;;;;;;;;;;5026290;28;20036;-82
2022/08/29 04:53:37;;;;;;;7.90;3.20;;;;;;;;;;5011719;28;20045;-83
2022/08/29 04:56:08;;;;;;;11.18;3.65;;;;;;;;;;5012529;28;20496;-83
2022/08/29 04:58:39;;;;;;;12.40;3.42;;;;;;;;;;5029225;28;20493;-83
2022/08/29 05:01:05;;;;;;;11.15;3.85;;;;;;;;;;5023455;28;20520;-84
2022/08/29 05:03:31;;;;;;;9.25;3.47;;;;;;;;;;5012074;28;20025;-82
2022/08/29 05:06:08;;;;;;;8.93;3.38;;;;;;;;;;5027636;28;20465;-86
2022/08/29 05:08:34;;;;;;;9.70;4.18;;;;;;;;;;5032488;28;20033;-86
2022/08/29 05:11:00;;;;;;;7.88;3.75;;;;;;;;;;5015190;28;20492;-86
2022/08/29 05:13:26;;;;;;;9.73;3.72;;;;;;;;;;5028717;28;20076;-85
2022/08/29 05:15:52;;;;;;;8.57;3.63;;;;;;;;;;5031137;28;20044;-81
2022/08/29 05:18:17;;;;;;;12.73;4.03;;;;;;;;;;5018772;28;20037;-83
2022/08/29 05:20:47;;;;;;;11.27;3.78;;;;;;;;;;5026194;28;20030;-83
2022/08/29 05:23:14;;;;;;;11.25;3.83;;;;;;;;;;5029790;28;20108;-82
2022/08/29 05:25:40;;;;;;;10.43;3.65;;;;;;;;;;5019195;28;20037;-81
2022/08/29 05:28:06;;;;;;;11.95;3.67;;;;;;;;;;5034952;28;20778;-82
2022/08/29 05:30:32;;;;;;;11.68;3.83;;;;;;;;;;5019768;28;20619;-82
2022/08/29 05:32:58;;;;;;;12.93;4.18;;;;;;;;;;5015796;28;20082;-81
2022/08/29 05:35:24;;;;;;;11.60;3.47;;;;;;;;;;5019718;28;20440;-82
2022/08/29 05:37:50;;;;;;;11.13;3.85;;;;;;;;;;5034684;28;20045;-82
2022/08/29 05:40:15;;;;;;;8.82;3.85;;;;;;;;;;5029908;28;20045;-82
2022/08/29 05:42:41;;;;;;;7.90;3.63;;;;;;;;;;5030908;28;20037;-82
2022/08/29 05:45:08;;;;;;;11.63;4.05;;;;;;;;;;5017903;28;20086;-83
2022/08/29 05:47:33;;;;;;;11.32;4.05;;;;;;;;;;5013979;28;20036;-83
2022/08/29 05:49:59;;;;;;;9.48;3.80;;;;;;;;;;5018944;28;20481;-83
2022/08/29 05:52:25;;;;;;;11.20;4.28;;;;;;;;;;5033874;28;20133;-83
2022/08/29 05:54:51;;;;;;;9.85;4.35;;;;;;;;;;5039847;28;20500;-84
2022/08/29 05:57:20;;;;;;;8.93;4.50;;;;;;;;;;5048035;28;20120;-80
2022/08/29 05:59:50;;;;;;;11.13;3.90;;;;;;;;;;5020079;28;20048;-79
2022/08/29 06:02:17;;;;;;;9.48;3.83;;;;;;;;;;5030608;28;20515;-80
2022/08/29 06:04:42;;;;;;;11.25;3.90;;;;;;;;;;5013275;28;20506;-79
2022/08/29 06:07:08;;;;;;;10.45;4.18;;;;;;;;;;5036397;28;20121;-79
2022/08/29 06:09:35;;;;;;;11.38;3.72;;;;;;;;;;5034399;28;20044;-79
2022/08/29 06:12:00;;;;;;;12.18;4.50;;;;;;;;;;5016011;28;20039;-80
2022/08/29 06:14:26;;;;;;;13.52;4.00;;;;;;;;;;5016349;28;20037;-82
2022/08/29 06:16:52;;;;;;;9.90;3.65;;;;;;;;;;5019559;28;20040;-80
2022/08/29 06:19:17;;;;;;;13.23;3.42;;;;;;;;;;5016865;28;20037;-79
2022/08/29 06:21:43;;;;;;;12.13;4.05;;;;;;;;;;5031960;28;20060;-78
2022/08/29 06:24:08;;;;;;;11.02;3.90;;;;;;;;;;5048629;28;20037;-80
2022/08/29 06:26:34;;;;;;;11.68;3.90;;;;;;;;;;5016012;28;20416;-80
2022/08/29 06:29:02;;;;;;;10.63;3.90;;;;;;;;;;5005743;28;20037;-81
2022/08/29 06:31:28;;;;;;;10.13;3.80;;;;;;;;;;5014510;28;20034;-80
2022/08/29 06:33:56;;;;;;;12.30;3.80;;;;;;;;;;5018199;28;20041;-80
2022/08/29 06:36:24;;;;;;;10.65;3.90;;;;;;;;;;5021857;28;20025;-80
2022/08/29 06:38:50;;;;;;;11.68;3.80;;;;;;;;;;5018844;28;20126;-81
2022/08/29 06:41:16;;;;;;;13.65;4.20;;;;;;;;;;5033133;28;20061;-81
2022/08/29 06:43:42;;;;;;;8.63;3.70;;;;;;;;;;5021658;28;20548;-79
2022/08/29 06:46:28;;;;;;;8.38;4.00;;;;;;;;;;5034364;28;20033;-80
2022/08/29 06:48:54;;;;;;;11.05;4.07;;;;;;;;;;5035508;28;20401;-80
2022/08/29 06:51:40;;;;;;;15.23;4.82;;;;;;;;;;5029811;28;20034;-80
2022/08/29 06:54:07;;;;;;;10.40;3.78;;;;;;;;;;5012634;28;20065;-81
2022/08/29 06:56:33;;;;;;;14.57;4.25;;;;;;;;;;4981542;28;20385;-80
2022/08/29 06:58:58;;;;;;;10.88;4.05;;;;;;;;;;4994737;28;20069;-81
2022/08/29 07:01:24;;;;;;;12.18;3.90;;;;;;;;;;5008647;28;20034;-79
2022/08/29 07:04:12;;;;;;;13.57;4.07;;;;;;;;;;4992728;28;20046;-80
2022/08/29 07:06:38;;;;;;;11.20;4.20;;;;;;;;;;4942430;28;20085;-79
2022/08/29 07:09:04;;;;;;;12.48;4.45;;;;;;;;;;4928818;28;20066;-81
2022/08/29 07:11:30;;;;;;;9.77;3.42;;;;;;;;;;4951426;28;20039;-80
2022/08/29 07:14:00;;;;;;;13.35;4.43;;;;;;;;;;4934602;28;20422;-82
2022/08/29 07:16:26;;;;;;;14.02;4.15;;;;;;;;;;4937623;28;20035;-82
2022/08/29 07:18:52;;;;;;;10.15;4.25;;;;;;;;;;4939797;28;20058;-80
2022/08/29 07:21:20;;;;;;;10.20;4.05;;;;;;;;;;4941149;28;20920;-79
2022/08/29 07:23:45;;;;;;;8.90;4.10;;;;;;;;;;4937891;28;20376;-80
2022/08/29 07:26:11;;;;;;;11.90;4.88;;;;;;;;;;4935661;28;20498;-80
2022/08/29 07:28:36;;;;;;;12.00;4.10;;;;;;;;;;4951245;28;20038;-80
2022/08/29 07:31:03;;;;;;;10.98;3.63;;;;;;;;;;4947451;28;20518;-80
2022/08/29 07:33:28;;;;;;;10.70;4.57;;;;;;;;;;4957768;28;20139;-82
2022/08/29 07:35:53;;;;;;;10.77;3.72;;;;;;;;;;4938061;28;20129;-80
2022/08/29 07:38:40;;;;;;;12.35;3.95;;;;;;;;;;4958030;28;20046;-80
2022/08/29 07:41:08;;;;;;;9.10;3.67;;;;;;;;;;4937393;28;20920;-79
2022/08/29 07:43:34;;;;;;;9.18;3.50;;;;;;;;;;4941214;28;20490;-79
2022/08/29 07:46:06;;;;;;;12.82;3.83;;;;;;;;;;4972770;28;20074;-79
2022/08/29 07:48:52;;;;;;;11.68;4.07;;;;;;;;;;4964331;28;20062;-80
2022/08/29 07:51:21;;;;;;;13.65;3.90;;;;;;;;;;4893940;29;20040;-80
2022/08/29 07:53:52;;;;;;;11.05;4.10;;;;;;;;;;4906879;29;20048;-81
2022/08/29 07:56:24;;;;;;;10.90;3.95;;;;;;;;;;4890568;29;20051;-79
2022/08/29 07:58:49;;;;;;;9.10;3.40;;;;;;;;;;4895961;29;20433;-80
2022/08/29 08:01:15;;;;;;;9.60;3.70;;;;;;;;;;4889848;29;20068;-79
2022/08/29 08:03:41;;;;;;;8.75;3.80;;;;;;;;;;4876784;29;20080;-79
2022/08/29 08:06:07;;;;;;;9.65;3.67;;;;;;;;;;4896053;29;20048;-81
2022/08/29 08:08:33;;;;;;;12.20;3.92;;;;;;;;;;4893384;29;20033;-82
2022/08/29 08:10:58;;;;;;;10.13;4.13;;;;;;;;;;4906156;29;20405;-81
2022/08/29 08:13:24;;;;;;;11.10;4.15;;;;;;;;;;4890654;29;20146;-81
2022/08/29 08:15:49;;;;;;;9.20;4.30;;;;;;;;;;4892864;29;20048;-81
2022/08/29 08:18:15;;;;;;;10.38;3.67;;;;;;;;;;4931209;28;20106;-82
2022/08/29 08:20:47;;;;;;;12.35;3.90;;;;;;;;;;4935689;28;20245;-83
2022/08/29 08:23:16;;;;;;;10.52;4.30;;;;;;;;;;4931844;28;20098;-82
2022/08/29 08:25:42;;;;;;;12.13;4.85;;;;;;;;;;4931756;28;20122;-82
2022/08/29 08:28:34;;;;;;;12.82;6.20;;;;;;;;;;4985912;28;20121;-82
2022/08/29 08:31:00;;;;;;;10.32;4.00;;;;;;;;;;5012695;28;20535;-82
2022/08/29 08:33:26;;;;;;;11.55;4.15;;;;;;;;;;5033361;28;20041;-82
2022/08/29 08:35:51;;;;;;;9.43;4.13;;;;;;;;;;5029081;28;20045;-82
2022/08/29 08:38:17;;;;;;;12.60;4.35;;;;;;;;;;5015335;28;20604;-81
2022/08/29 08:40:46;;;;;;;9.80;4.28;;;;;;;;;;5031676;28;20484;-81
2022/08/29 08:43:14;;;;;;;11.15;4.03;;;;;;;;;;5032076;28;20049;-82
2022/08/29 08:45:43;;;;;;;9.50;3.90;;;;;;;;;;5029302;28;22413;-81
2022/08/29 08:48:18;;;;;;;11.63;4.70;;;;;;;;;;5032611;28;20452;-82
2022/08/29 08:50:50;;;;;;;9.77;4.15;;;;;;;;;;5018237;28;20424;-81
2022/08/29 08:53:38;;;;;;;11.07;3.95;;;;;;;;;;5019402;28;20041;-82
2022/08/29 08:56:14;;;;;;;9.60;3.78;;;;;;;;;;5017052;28;20468;-81
2022/08/29 08:58:52;;;;;;;9.35;3.88;;;;;;;;;;5034630;28;20831;-81
2022/08/29 09:01:29;;;;;;;;;;;;;;;;;;5027941;28;20042;-82
2022/08/29 09:03:57;;;;;;;9.43;3.70;;;;;;;;;;5032997;28;19921;-81
2022/08/29 09:06:31;;;;;;;13.23;4.05;;;;;;;;;;5030014;28;20029;-82
2022/08/29 09:08:57;;;;;;;14.60;4.10;;;;;;;;;;5029655;28;20512;-82
2022/08/29 09:11:46;;;;;;;9.75;4.32;;;;;;;;;;5029099;28;20062;-81
2022/08/29 09:14:55;;;;;;;11.05;4.13;;;;;;;;;;5033147;28;20037;-82
2022/08/29 09:17:26;;;;;;;7.93;3.75;;;;;;;;;;5024241;28;20408;-82
2022/08/29 09:19:51;;;;;;;7.13;3.90;;;;;;;;;;5047972;28;20045;-82
2022/08/29 09:22:39;;;;;;;8.63;4.00;;;;;;;;;;5024483;28;20043;-81
2022/08/29 09:25:06;;;;;;;9.68;3.90;;;;;;;;;;5016831;28;20047;-82
2022/08/29 09:27:34;;;;;;;12.60;3.90;;;;;;;;;;5019232;28;20040;-82
2022/08/29 09:30:02;;;;;;;10.63;4.38;;;;;;;;;;5029452;28;20442;-82
2022/08/29 09:32:27;;;;;;;9.07;3.92;;;;;;;;;;5030913;28;20060;-81
2022/08/29 09:34:52;;;;;;;13.23;3.88;;;;;;;;;;5018920;28;20029;-81
2022/08/29 09:37:28;;;;;;;8.77;3.90;;;;;;;;;;5018784;28;20125;-82
2022/08/29 09:40:06;;;;;;;9.02;4.40;;;;;;;;;;5004998;28;20037;-81
2022/08/29 09:42:35;;;;;;;11.63;4.20;;;;;;;;;;5006419;28;20434;-83
2022/08/29 09:45:23;;;;;;;10.77;3.83;;;;;;;;;;5019560;28;20492;-82
2022/08/29 09:47:54;;;;;;;8.45;3.92;;;;;;;;;;5034229;28;20041;-82
2022/08/29 09:50:24;;;;;;;11.55;4.93;;;;;;;;;;5015631;28;20056;-82
2022/08/29 09:52:58;;;;;;;6.28;3.90;;;;;;;;;;5029676;28;20099;-82
2022/08/29 09:55:27;;;;;;;10.90;4.10;;;;;;;;;;5030590;28;20040;-82
2022/08/29 09:57:58;;;;;;;9.82;4.15;;;;;;;;;;5029541;28;20037;-83
2022/08/29 10:00:27;;;;;;;10.65;4.07;;;;;;;;;;5026802;28;20044;-82
2022/08/29 10:02:55;;;;;;;8.80;3.72;;;;;;;;;;5011919;28;20033;-81
2022/08/29 10:05:45;;;;;;;9.52;4.43;;;;;;;;;;5020409;28;20039;-82
2022/08/29 10:08:33;;;;;;;9.57;4.03;;;;;;;;;;5015938;28;20045;-82
2022/08/29 10:11:05;;;;;;;11.25;4.07;;;;;;;;;;5034719;28;20037;-82
2022/08/29 10:13:54;;;;;;;7.95;3.83;;;;;;;;;;5003592;28;20040;-81
2022/08/29 10:16:26;;;;;;;8.43;3.78;;;;;;;;;;5031365;28;20408;-82
2022/08/29 10:18:58;;;;;;;9.10;4.15;;;;;;;;;;5028949;28;20459;-82
2022/08/29 10:21:48;;;;;;;9.38;3.75;;;;;;;;;;5037560;28;20037;-82
2022/08/29 10:24:23;;;;;;;7.05;3.78;;;;;;;;;;5036248;28;20045;-82
2022/08/29 10:27:22;;;;;;;7.07;3.75;;;;;;;;;;5033563;28;20045;-82
2022/08/29 10:30:19;;;;;;;10.63;4.10;;;;;;;;;;5024360;28;20044;-82
2022/08/29 10:33:08;;;;;;;7.20;3.67;;;;;;;;;;5016638;28;20053;-82
2022/08/29 10:35:42;;;;;;;6.57;3.28;;;;;;;;;;5036165;28;20037;-82
2022/08/29 10:38:38;;;;;;;7.75;3.30;;;;;;;;;;5017305;28;20049;-82
2022/08/29 10:41:17;;;;;;;13.30;3.75;;;;;;;;;;5032645;28;20456;-82
2022/08/29 10:44:19;;;;;;;10.07;3.47;;;;;;;;;;5033272;28;20030;-82
2022/08/29 10:47:13;;;;;;;6.65;3.35;;;;;;;;;;5034229;28;20562;-80
2022/08/29 10:50:16;;;;;;;9.07;3.60;;;;;;;;;;5035559;28;20040;-83
2022/08/29 10:53:08;;;;;;;8.98;3.90;;;;;;;;;;5017853;28;20087;-82
2022/08/29 10:55:52;;;;;;;9.82;4.15;;;;;;;;;;5028173;28;20037;-83
2022/08/29 10:58:17;;;;;;;9.40;2.97;;;;;;;;;;5022789;28;20048;-82
2022/08/29 11:00:52;;;;;;;7.00;3.40;;;;;;;;;;5012696;28;20045;-83
2022/08/29 11:03:51;;;;;;;6.63;3.22;;;;;;;;;;5024956;28;20035;-83
2022/08/29 11:06:28;;;;;;;5.88;3.30;;;;;;;;;;5022093;28;20120;-83
2022/08/29 11:09:52;;;;;;;7.57;3.17;;;;;;;;;;5004914;28;20046;-82
2022/08/29 11:12:24;;;;;;;7.88;3.40;;;;;;;;;;4941095;28;20101;-83
2022/08/29 11:15:14;;;;;;;8.18;3.28;;;;;;;;;;4942111;28;20051;-83
2022/08/29 11:17:42;;;;;;;7.80;3.42;;;;;;;;;;4922233;28;20135;-82
2022/08/29 11:20:11;;;;;;;10.13;3.35;;;;;;;;;;4938589;28;20050;-83
2022/08/29 11:22:43;;;;;;;8.40;3.65;;;;;;;;;;4942580;28;20039;-83
2022/08/29 11:25:11;;;;;;;8.45;3.42;;;;;;;;;;4954106;28;20042;-82
2022/08/29 11:27:50;;;;;;;7.35;3.50;;;;;;;;;;4950288;28;20122;-83
2022/08/29 11:30:22;;;;;;;6.85;3.17;;;;;;;;;;4956457;28;20039;-82
2022/08/29 11:33:30;;;;;;;7.15;3.38;;;;;;;;;;4939412;28;20035;-82
2022/08/29 11:36:36;;;;;;;7.05;3.72;;;;;;;;;;4937380;28;20043;-83
2022/08/29 11:39:26;;;;;;;7.80;3.17;;;;;;;;;;4949580;28;20118;-83
2022/08/29 11:41:54;;;;;;;8.57;3.33;;;;;;;;;;4933962;28;20043;-82
2022/08/29 11:44:25;;;;;;;6.20;3.15;;;;;;;;;;4958095;28;20433;-82
2022/08/29 11:46:52;;;;;;;7.53;3.15;;;;;;;;;;4952142;28;20043;-82
2022/08/29 11:49:44;;;;;;;6.05;3.10;;;;;;;;;;4985652;28;20037;-82
2022/08/29 11:52:10;;;;;;;5.47;2.88;;;;;;;;;;5017582;28;20041;-83
2022/08/29 11:54:35;;;;;;;7.18;2.80;;;;;;;;;;5030404;28;20033;-83
2022/08/29 11:57:43;;;;;;;6.32;3.10;;;;;;;;;;5032140;28;20038;-82
2022/08/29 12:00:31;;;;;;;7.32;2.70;;;;;;;;;;4962729;28;20034;-82
2022/08/29 12:02:56;;;;;;;5.30;2.63;;;;;;;;;;4995022;28;20037;-83
2022/08/29 12:05:28;;;;;;;5.97;2.72;;;;;;;;;;4983528;28;20037;-83
2022/08/29 12:08:00;;;;;;;7.25;2.70;;;;;;;;;;4992040;28;20919;-82
2022/08/29 12:10:49;;;;;;;5.60;2.85;;;;;;;;;;4978434;28;20081;-82
2022/08/29 12:13:43;;;;;;;6.13;2.38;;;;;;;;;;4984304;28;20033;-82
2022/08/29 12:16:09;;;;;;;7.47;3.17;;;;;;;;;;5009830;28;20045;-83
2022/08/29 12:18:39;;;;;;;6.80;2.60;;;;;;;;;;4990276;28;20646;-83
2022/08/29 12:21:33;;;;;;;6.55;2.72;;;;;;;;;;4981178;28;20053;-81
2022/08/29 12:24:01;;;;;;;8.10;3.20;;;;;;;;;;4996202;28;20543;-82
2022/08/29 12:26:43;;;;;;;4.82;2.53;;;;;;;;;;5007743;28;20057;-82
2022/08/29 12:29:23;;;;;;;6.25;3.17;;;;;;;;;;4969288;28;20046;-83
2022/08/29 12:32:13;;;;;;;6.45;3.28;;;;;;;;;;5010780;28;20041;-82
2022/08/29 12:34:54;;;;;;;6.22;3.10;;;;;;;;;;4995063;28;20194;-82
2022/08/29 12:37:19;;;;;;;6.60;3.20;;;;;;;;;;5011988;28;20393;-83
2022/08/29 12:40:17;;;;;;;7.53;2.88;;;;;;;;;;5020524;28;20075;-82
2022/08/29 12:43:27;;;;;;;5.95;3.03;;;;;;;;;;5029410;28;20476;-82
2022/08/29 12:45:52;;;;;;;6.88;2.85;;;;;;;;;;5028250;28;20962;-82
2022/08/29 12:48:30;;;;;;;6.85;3.05;;;;;;;;;;5034623;28;20021;-82
2022/08/29 12:50:55;;;;;;;5.65;2.55;;;;;;;;;;5033470;28;20043;-81
2022/08/29 12:53:26;;;;;;;7.72;2.70;;;;;;;;;;5032567;28;20046;-82
2022/08/29 12:55:55;;;;;;;5.28;2.80;;;;;;;;;;5004228;28;20041;-82
2022/08/29 12:58:36;;;;;;;5.60;2.60;;;;;;;;;;5032599;28;20038;-83
2022/08/29 13:01:04;;;;;;;6.05;2.97;;;;;;;;;;5029468;28;20037;-82
2022/08/29 13:03:29;;;;;;;4.53;2.03;;;;;;;;;;5015322;28;20396;-83
2022/08/29 13:06:05;;;;;;;4.60;2.20;;;;;;;;;;5018608;28;20037;-81
2022/08/29 13:08:35;;;;;;;5.60;2.22;;;;;;;;;;5034145;28;20115;-82
2022/08/29 13:11:07;;;;;;;4.03;2.53;;;;;;;;;;5029675;28;20045;-83
2022/08/29 13:13:33;;;;;;;5.22;2.50;;;;;;;;;;5030520;28;20546;-82
2022/08/29 13:16:01;;;;;;;5.78;2.80;;;;;;;;;;5029900;28;20033;-82
2022/08/29 13:18:27;;;;;;;5.22;2.33;;;;;;;;;;5030524;28;20034;-82
2022/08/29 13:21:30;;;;;;;6.90;2.50;;;;;;;;;;5013235;28;20045;-82
2022/08/29 13:24:03;;;;;;;4.75;2.50;;;;;;;;;;5030533;28;20069;-84
2022/08/29 13:26:35;;;;;;;13.45;5.15;;;;;;;;;;5032289;28;20029;-82
2022/08/29 13:29:16;;;;;;;5.60;2.75;;;;;;;;;;5013565;28;20032;-82
2022/08/29 13:31:42;;;;;;;5.72;2.60;;;;;;;;;;5022623;28;20091;-81
2022/08/29 13:34:12;;;;;;;7.35;3.08;;;;;;;;;;5026272;28;20052;-84
2022/08/29 13:37:01;;;;;;;5.72;2.30;;;;;;;;;;5018641;28;20033;-83
2022/08/29 13:39:38;;;;;;;7.15;2.60;;;;;;;;;;5031328;28;20492;-82
2022/08/29 13:42:19;;;;;;;3.75;2.10;;;;;;;;;;5021138;28;20512;-83
2022/08/29 13:44:47;;;;;;;7.43;2.33;;;;;;;;;;5033055;28;20487;-83
2022/08/29 13:47:35;;;;;;;6.00;2.65;;;;;;;;;;5025651;28;20029;-83
2022/08/29 13:50:05;;;;;;;5.75;2.60;;;;;;;;;;5026457;28;20033;-84
2022/08/29 13:52:31;;;;;;;3.85;2.28;;;;;;;;;;5028581;28;20053;-84
2022/08/29 13:54:59;;;;;;;4.57;2.28;;;;;;;;;;5019677;28;20501;-84
2022/08/29 13:57:27;;;;;;;5.93;2.28;;;;;;;;;;5031227;28;20112;-83
2022/08/29 13:59:53;;;;;;;8.20;2.60;;;;;;;;;;5020238;28;20566;-84
2022/08/29 14:02:18;;;;;;;6.72;2.40;;;;;;;;;;5039379;28;20037;-82
2022/08/29 14:04:48;;;;;;;4.78;2.33;;;;;;;;;;5022155;28;20033;-83
2022/08/29 14:07:22;;;;;;;6.30;2.47;;;;;;;;;;5029155;28;20033;-83
2022/08/29 14:09:48;;;;;;;6.13;2.22;;;;;;;;;;5012764;28;20026;-85
2022/08/29 14:12:14;;;;;;;6.47;2.22;;;;;;;;;;5033875;28;20557;-84
2022/08/29 14:14:40;;;;;;;5.72;2.45;;;;;;;;;;5024701;28;20037;-85
2022/08/29 14:17:06;;;;;;;8.27;2.93;;;;;;;;;;5016442;28;20051;-86
2022/08/29 14:19:31;;;;;;;6.57;2.60;;;;;;;;;;5024345;28;20104;-83
2022/08/29 14:21:59;;;;;;;6.13;2.63;;;;;;;;;;5013849;28;20053;-83
2022/08/29 14:24:25;;;;;;;4.07;2.20;;;;;;;;;;5041300;28;20055;-83
2022/08/29 14:26:51;;;;;;;5.60;2.28;;;;;;;;;;5031541;28;20196;-83
2022/08/29 14:29:16;;;;;;;5.72;2.55;;;;;;;;;;5023757;28;20116;-84
2022/08/29 14:31:42;;;;;;;5.35;2.10;;;;;;;;;;5036962;28;20040;-82
2022/08/29 14:34:07;;;;;;;6.00;2.33;;;;;;;;;;5029488;28;20510;-82
2022/08/29 14:36:33;;;;;;;4.82;2.30;;;;;;;;;;5020696;28;20030;-83
2022/08/29 14:38:59;;;;;;;4.72;2.30;;;;;;;;;;5021267;28;20091;-82
2022/08/29 14:41:25;;;;;;;5.38;2.10;;;;;;;;;;5022065;28;20369;-83
2022/08/29 14:43:52;;;;;;;5.95;2.50;;;;;;;;;;5017696;28;20441;-84
2022/08/29 14:46:18;;;;;;;5.95;2.10;;;;;;;;;;5016258;28;20052;-83
2022/08/29 14:48:44;;;;;;;5.00;2.30;;;;;;;;;;5012950;28;20037;-83
2022/08/29 14:51:09;;;;;;;4.68;2.17;;;;;;;;;;5005003;28;20402;-83
2022/08/29 14:53:35;;;;;;;4.60;2.10;;;;;;;;;;5054667;28;20041;-83
2022/08/29 14:56:00;;;;;;;3.92;1.98;;;;;;;;;;5008514;28;20104;-84
2022/08/29 14:58:26;;;;;;;5.25;2.53;;;;;;;;;;5021189;28;20035;-83
2022/08/29 15:00:51;;;;;;;4.88;2.00;;;;;;;;;;5018350;28;20041;-83
2022/08/29 15:03:18;;;;;;;6.32;1.90;;;;;;;;;;5019800;28;20037;-82
2022/08/29 15:05:43;;;;;;;5.93;2.08;;;;;;;;;;5024465;28;20437;-83